EW4291 Weather Reports


Display with metric or nautical units.
time (UTC)temp
F
wind
direction
speed
MPH
gust
MPH
rain 1hr
in
rain 24hr
in
rain mn
in
humidity
%
barometer
mb
20190919123048 59 169 0.0 0.0 0.00 0.62 0.00 97 1013.9
20190919121642 59 169 0.0 0.0 0.00 0.62 0.00 97 1013.6
20190919120051 59 169 0.0 0.0 0.00 0.62 0.00 97 1013.2
20190919114521 59 205 0.0 0.0 0.00 0.62 0.00 97 1012.9
20190919113145 58 205 0.0 0.0 0.00 0.62 0.00 97 1012.7
20190919111613 59 205 0.0 0.0 0.00 0.62 0.00 96 1012.0
20190919110206 59 205 0.0 0.0 0.00 0.62 0.00 96 1011.7
20190919104525 59 170 0.0 1.0 0.00 0.62 0.00 96 1011.3
20190919103152 60 205 0.0 1.0 0.00 0.62 0.00 96 1011.1
20190919101606 59 200 0.0 1.0 0.00 0.62 0.00 96 1011.1
20190919100021 59 201 0.0 2.0 0.00 0.62 0.00 96 1011.3
20190919094644 59 186 0.0 1.0 0.00 0.62 0.00 97 1011.2
20190919093043 59 202 0.0 0.0 0.00 0.62 0.00 96 1011.3
20190919091723 59 195 0.0 0.0 0.00 0.62 0.00 95 1011.3
20190919091502 59 204 0.0 0.0 0.00 0.62 0.00 95 1011.3
20190919090032 59 200 0.0 0.0 0.00 0.62 0.00 95 1011.3
20190919084742 59 204 0.0 1.0 0.00 0.62 0.00 93 1011.3
20190919083053 60 205 0.0 0.0 0.00 0.62 0.00 92 1011.1
20190919081516 62 205 0.0 1.0 0.00 0.62 0.00 93 1011.1
20190919080133 61 205 0.0 0.0 0.00 0.62 0.00 93 1011.1
20190919074555 61 202 0.0 0.0 0.00 0.62 0.00 92 1011.2
20190919073237 62 201 0.0 2.0 0.00 0.62 0.00 91 1011.4
20190919073003 62 201 0.0 2.0 0.00 0.62 0.00 91 1011.5
20190919071630 63 193 1.0 3.0 0.00 0.62 0.00 91 1011.5
20190919064607 63 184 1.0 4.0 0.00 0.62 0.00 91 1011.4
20190919063026 63 148 1.0 3.0 0.00 0.62 0.00 91 1011.5
20190919061620 63 184 0.0 3.0 0.00 0.62 0.00 91 1011.3
20190919060042 63 186 0.0 2.0 0.00 0.62 0.00 91 1011.3
20190919054739 63 164 0.0 3.0 0.00 0.62 0.00 91 1011.3
20190919054502 63 188 0.0 3.0 0.00 0.62 0.00 92 1011.3
20190919053141 62 186 0.0 0.0 0.00 0.62 0.00 91 1011.2
20190919051525 63 183 0.0 0.0 0.00 0.62 0.00 90 1011.2
20190919050210 64 198 0.0 0.0 0.00 0.62 0.00 88 1011.1
20190919044614 65 203 0.0 0.0 0.00 0.62 0.62 86 1011.1
20190919043212 67 183 0.0 0.0 0.00 0.62 0.62 84 1010.9
20190919041555 67 211 0.0 3.0 0.00 0.62 0.62 84 1010.8
20190919040055 68 214 0.0 5.0 0.00 0.62 0.62 84 1010.5
20190919034715 68 277 0.0 5.0 0.00 0.62 0.62 87 1010.4
20190919033019 68 190 2.0 4.0 0.00 0.62 0.62 89 1010.3
20190919031641 69 166 0.0 6.0 0.00 0.62 0.62 91 1010.2
20190919030105 68 193 1.0 3.0 0.00 0.62 0.62 93 1010.0
20190919024641 69 245 0.0 2.0 0.00 0.62 0.62 92 1010.1
20190919023103 70 186 0.0 3.0 0.00 0.62 0.62 90 1010.1
20190919021527 72 260 1.0 5.0 0.00 0.62 0.62 89 1009.9
20190919020104 72 218 3.0 10.0 0.00 0.62 0.62 88 1009.7
20190919014556 73 235 4.0 10.0 0.00 0.62 0.62 87 1009.4
20190919013142 73 180 5.0 11.0 0.00 0.62 0.62 87 1009.2
20190919011613 73 200 5.0 11.0 0.00 0.62 0.62 86 1008.8
20190919004608 73 212 4.0 8.0 0.00 0.62 0.62 86 1008.5
20190919003006 74 158 4.0 10.0 0.00 0.62 0.62 84 1008.4
20190919001634 74 207 4.0 12.0 0.00 0.62 0.62 83 1008.3
20190919000111 75 187 5.0 15.0 0.00 0.62 0.62 81 1008.1
20190918234705 75 203 7.0 17.0 0.00 0.62 0.62 80 1008.0
20190918233144 76 210 7.0 20.0 0.00 0.62 0.62 78 1007.8
20190918231517 77 198 8.0 16.0 0.00 0.62 0.62 77 1007.8
20190918230156 76 208 8.0 20.0 0.00 0.62 0.62 77 1007.6
20190918224516 76 138 7.0 16.0 0.00 0.62 0.62 77 1007.6
20190918223138 76 186 9.0 20.0 0.00 0.62 0.62 76 1007.7
20190918221557 76 191 9.0 18.0 0.00 0.62 0.62 76 1007.5
20190918220306 77 204 9.0 20.0 0.00 0.62 0.62 75 1007.7
20190918220031 77 215 9.0 20.0 0.00 0.62 0.62 75 1007.6
20190918214625 77 229 8.0 21.0 0.00 0.62 0.62 74 1007.6
20190918213035 78 218 9.0 18.0 0.00 0.62 0.62 73 1007.3
20190918211818 79 222 7.0 25.0 0.00 0.62 0.62 71 1007.1
20190918210047 79 149 8.0 24.0 0.00 0.62 0.62 70 1006.9
20190918204633 80 188 11.0 22.0 0.00 0.62 0.62 67 1006.8
20190918203117 80 180 11.0 25.0 0.00 0.62 0.62 66 1006.8
20190918201510 80 225 15.0 24.0 0.00 0.62 0.62 64 1006.7
20190918200141 80 136 10.0 24.0 0.00 0.62 0.62 65 1006.5
20190918194525 80 235 10.0 22.0 0.00 0.62 0.62 65 1006.7
20190918193122 80 195 13.0 25.0 0.00 0.62 0.62 65 1006.8
20190918191548 80 161 8.0 20.0 0.00 0.62 0.62 69 1007.1
20190918184554 77 219 12.0 22.0 0.00 0.69 0.62 72 1007.9
20190918183015 77 171 11.0 24.0 0.00 0.69 0.62 76 1008.0
20190918181604 76 144 12.0 23.0 0.00 0.69 0.62 78 1008.2
20190918180103 74 211 12.0 23.0 0.00 0.69 0.62 81 1008.4
20190918174742 74 208 7.0 15.0 0.00 0.74 0.62 83 1008.8
20190918173117 74 200 7.0 17.0 0.00 0.74 0.62 84 1008.7
20190918171513 73 203 9.0 19.0 0.00 0.74 0.62 85 1008.8
20190918170141 73 170 8.0 18.0 0.00 0.74 0.62 86 1008.9
20190918164540 72 204 6.0 16.0 0.00 0.81 0.62 87 1008.9
20190918163118 72 156 7.0 18.0 0.00 0.81 0.62 89 1009.1
20190918161714 72 201 6.0 17.0 0.00 0.81 0.62 90 1009.2
20190918160038 71 186 8.0 20.0 0.00 0.81 0.62 91 1009.2
20190918154620 71 195 8.0 25.0 0.00 0.82 0.62 93 1009.4
20190918153202 70 125 7.0 19.0 0.00 0.82 0.62 93 1009.2
20190918151541 70 207 7.0 14.0 0.00 0.82 0.62 95 1009.6
20190918150014 69 193 2.0 12.0 0.00 0.82 0.62 95 1009.9
20190918144635 69 167 3.0 12.0 0.00 0.82 0.62 95 1010.4
20190918143151 69 188 6.0 11.0 0.03 0.82 0.62 95 1010.9
20190918141528 68 224 6.0 13.0 0.09 0.82 0.62 96 1011.0
20190918140008 67 187 4.0 14.0 0.20 0.82 0.62 96 1009.9
20190918134658 67 194 6.0 15.0 0.45 0.82 0.62 96 1008.8
20190918133047 67 152 1.0 7.0 0.52 0.79 0.59 94 1010.4
20190918131539 68 193 5.0 15.0 0.51 0.73 0.53 96 1012.2
20190918124619 69 215 5.0 17.0 0.17 0.37 0.17 95 1012.9